createdAt,value
2022-11-12T00:00:55.460Z,13.20
2022-11-12T00:03:22.241Z,12.60
2022-11-12T00:05:50.896Z,14.60
2022-11-12T00:08:18.302Z,16.17
2022-11-12T00:10:46.072Z,14.68
2022-11-12T00:13:13.680Z,9.60
2022-11-12T00:15:40.741Z,6.85
2022-11-12T00:18:08.663Z,6.38
2022-11-12T00:20:35.997Z,7.78
2022-11-12T00:23:03.699Z,5.88
2022-11-12T00:25:31.159Z,6.03
2022-11-12T00:28:05.682Z,8.70
2022-11-12T00:30:32.747Z,5.70
2022-11-12T00:33:03.832Z,7.90
2022-11-12T00:35:33.868Z,7.30
2022-11-12T00:38:01.770Z,6.82
2022-11-12T00:40:28.926Z,8.48
2022-11-12T00:42:55.697Z,8.90
2022-11-12T00:45:23.116Z,10.70
2022-11-12T00:47:49.820Z,12.43
2022-11-12T00:50:16.877Z,10.07
2022-11-12T00:52:43.758Z,10.07
2022-11-12T00:55:11.074Z,9.65
2022-11-12T00:57:38.016Z,8.30
2022-11-12T01:00:07.530Z,10.13
2022-11-12T01:02:42.330Z,11.55
2022-11-12T01:05:10.488Z,9.80
2022-11-12T01:07:38.335Z,10.35
2022-11-12T01:10:05.623Z,11.30
2022-11-12T01:12:32.808Z,10.95
2022-11-12T01:14:59.685Z,9.48
2022-11-12T01:17:26.415Z,13.95
2022-11-12T01:19:53.278Z,11.13
2022-11-12T01:22:20.656Z,10.75
2022-11-12T01:24:47.346Z,11.75
2022-11-12T01:27:14.609Z,10.90
2022-11-12T01:29:41.634Z,12.18
2022-11-12T01:32:08.727Z,11.23
2022-11-12T01:34:35.730Z,10.57
2022-11-12T01:37:02.360Z,10.85
2022-11-12T01:39:30.373Z,10.98
2022-11-12T01:41:57.520Z,13.52
2022-11-12T01:44:27.230Z,9.57
2022-11-12T01:47:41.496Z,13.18
2022-11-12T01:50:18.391Z,9.80
2022-11-12T01:52:55.152Z,9.80
2022-11-12T01:55:28.787Z,10.15
2022-11-12T01:58:05.315Z,9.57
2022-11-12T02:00:32.412Z,8.63
2022-11-12T02:03:01.378Z,8.32
2022-11-12T02:05:30.290Z,8.00
2022-11-12T02:07:58.270Z,8.50
2022-11-12T02:10:25.694Z,10.00
2022-11-12T02:13:12.012Z,10.90
2022-11-12T02:15:39.684Z,13.55
2022-11-12T02:18:07.084Z,10.70
2022-11-12T02:20:35.560Z,8.13
2022-11-12T02:23:02.850Z,6.20
2022-11-12T02:25:29.662Z,7.22
2022-11-12T02:27:57.169Z,8.30
2022-11-12T02:30:35.682Z,12.57
2022-11-12T02:33:02.576Z,12.38
2022-11-12T02:35:29.755Z,12.00
2022-11-12T02:37:56.924Z,12.95
2022-11-12T02:40:23.867Z,11.30
2022-11-12T02:42:50.625Z,9.95
2022-11-12T02:45:17.881Z,14.18
2022-11-12T02:47:44.690Z,9.02
2022-11-12T02:50:11.976Z,7.80
2022-11-12T02:52:40.575Z,8.45
2022-11-12T02:55:08.779Z,9.45
2022-11-12T02:57:36.045Z,9.57
2022-11-12T03:00:10.959Z,10.07
2022-11-12T03:02:43.487Z,9.00
2022-11-12T03:05:11.325Z,11.75
2022-11-12T03:07:38.805Z,12.75
2022-11-12T03:10:06.682Z,11.90
2022-11-12T03:12:33.944Z,9.73
2022-11-12T03:15:00.937Z,11.00
2022-11-12T03:17:27.662Z,9.90
2022-11-12T03:19:54.383Z,36.75
2022-11-12T03:22:21.054Z,39.30
2022-11-12T03:24:47.903Z,17.00
2022-11-12T03:27:14.662Z,12.35
2022-11-12T03:29:41.416Z,15.90
2022-11-12T03:32:08.034Z,10.75
2022-11-12T03:34:34.762Z,19.27
2022-11-12T03:37:01.526Z,12.45
2022-11-12T03:39:28.218Z,10.85
2022-11-12T03:41:54.952Z,11.95
2022-11-12T03:44:21.665Z,11.38
2022-11-12T03:46:48.326Z,10.88
2022-11-12T03:49:15.102Z,13.18
2022-11-12T03:51:41.924Z,13.65
2022-11-12T03:54:08.778Z,15.07
2022-11-12T03:56:35.544Z,11.65
2022-11-12T03:59:02.202Z,12.27
2022-11-12T04:01:29.231Z,16.25
2022-11-12T04:03:56.547Z,14.98
2022-11-12T04:06:42.754Z,24.70
2022-11-12T04:09:09.563Z,54.85
2022-11-12T04:11:36.370Z,20.75
2022-11-12T04:14:03.232Z,64.28
2022-11-12T04:16:48.611Z,29.65
2022-11-12T04:19:34.053Z,50.47
2022-11-12T04:22:09.071Z,47.55
2022-11-12T04:24:56.084Z,28.17
2022-11-12T04:27:27.923Z,85.95
2022-11-12T04:30:13.147Z,47.80
2022-11-12T04:32:50.019Z,35.05
2022-11-12T04:35:17.290Z,83.70
2022-11-12T04:37:46.920Z,44.85
2022-11-12T04:40:40.452Z,58.45
2022-11-12T04:43:28.837Z,36.72
2022-11-12T04:45:56.266Z,25.90
2022-11-12T04:48:24.081Z,26.80
2022-11-12T04:50:55.030Z,32.38
2022-11-12T04:53:21.915Z,33.00
2022-11-12T04:55:54.396Z,74.57
2022-11-12T04:58:21.848Z,53.75
2022-11-12T05:00:49.537Z,72.70
2022-11-12T05:03:17.469Z,44.63
2022-11-12T05:05:44.299Z,41.03
2022-11-12T05:08:11.869Z,41.40
2022-11-12T05:10:39.123Z,55.92
2022-11-12T05:13:05.936Z,37.83
2022-11-12T05:15:34.652Z,29.85
2022-11-12T05:18:01.418Z,41.08
2022-11-12T05:20:29.117Z,32.42
2022-11-12T05:23:06.420Z,35.80
2022-11-12T05:25:35.614Z,58.85
2022-11-12T05:28:02.508Z,47.00
2022-11-12T05:30:29.612Z,34.03
2022-11-12T05:32:56.821Z,32.85
2022-11-12T05:35:23.620Z,41.53
2022-11-12T05:37:50.474Z,51.25
2022-11-12T05:40:19.055Z,71.65
2022-11-12T05:42:46.094Z,45.97
2022-11-12T05:45:12.913Z,18.80
2022-11-12T05:47:39.597Z,52.00
2022-11-12T05:50:07.427Z,38.38
2022-11-12T05:52:34.587Z,45.35
2022-11-12T05:55:01.572Z,34.03
2022-11-12T05:57:28.377Z,39.80
2022-11-12T05:59:55.038Z,37.38
2022-11-12T06:02:22.536Z,26.83
2022-11-12T06:04:49.276Z,30.27
2022-11-12T06:07:16.031Z,32.45
2022-11-12T06:09:43.006Z,36.92
2022-11-12T06:12:10.732Z,37.83
2022-11-12T06:14:38.280Z,58.63
2022-11-12T06:17:05.506Z,35.20
2022-11-12T06:19:32.331Z,48.67
2022-11-12T06:21:59.134Z,44.92
2022-11-12T06:24:32.115Z,39.00
2022-11-12T06:27:01.849Z,55.45
2022-11-12T06:29:30.333Z,51.28
2022-11-12T06:31:57.439Z,50.20
2022-11-12T06:34:24.695Z,42.30
2022-11-12T06:36:52.478Z,65.35
2022-11-12T06:39:19.611Z,80.10
2022-11-12T06:41:46.431Z,85.03
2022-11-12T06:44:17.755Z,56.03
2022-11-12T06:46:47.724Z,73.60
2022-11-12T06:49:14.427Z,73.57
2022-11-12T06:51:41.724Z,57.30
2022-11-12T06:54:08.412Z,56.22
2022-11-12T06:56:35.162Z,54.45
2022-11-12T06:59:02.082Z,49.17
2022-11-12T07:01:29.640Z,46.05
2022-11-12T07:03:56.379Z,55.97
2022-11-12T07:06:23.055Z,79.20
2022-11-12T07:08:51.304Z,81.60
2022-11-12T07:11:19.518Z,53.33
2022-11-12T07:13:47.796Z,56.63
2022-11-12T07:16:19.149Z,59.22
2022-11-12T07:18:47.010Z,77.47
2022-11-12T07:21:15.688Z,114.10
2022-11-12T07:23:42.659Z,78.68
2022-11-12T07:26:21.468Z,57.40
2022-11-12T07:28:50.655Z,57.25
2022-11-12T07:31:19.002Z,42.65
2022-11-12T07:33:46.553Z,46.33
2022-11-12T07:36:15.258Z,51.88
2022-11-12T07:38:43.354Z,43.10
2022-11-12T07:41:24.343Z,45.45
2022-11-12T07:43:53.472Z,51.80
2022-11-12T07:46:23.176Z,79.15
2022-11-12T07:48:50.124Z,38.53
2022-11-12T07:51:22.683Z,78.07
2022-11-12T07:53:53.763Z,42.50
2022-11-12T07:56:26.233Z,67.63
2022-11-12T07:58:53.291Z,56.30
2022-11-12T08:01:30.622Z,58.50
2022-11-12T08:03:58.568Z,50.00
2022-11-12T08:06:25.921Z,32.58
2022-11-12T08:08:53.631Z,33.25
2022-11-12T08:11:20.665Z,40.88
2022-11-12T08:13:47.509Z,40.28
2022-11-12T08:16:14.356Z,44.97
2022-11-12T08:18:41.015Z,45.10
2022-11-12T08:21:09.560Z,52.88
2022-11-12T08:23:36.215Z,45.20
2022-11-12T08:26:05.429Z,51.53
2022-11-12T08:28:34.350Z,49.65
2022-11-12T08:31:11.254Z,35.85
2022-11-12T08:33:38.312Z,41.90
2022-11-12T08:36:06.350Z,40.95
2022-11-12T08:38:33.337Z,50.78
2022-11-12T08:41:01.662Z,57.45
2022-11-12T08:43:28.429Z,53.70
2022-11-12T08:45:55.136Z,49.13
2022-11-12T08:48:21.915Z,59.33
2022-11-12T08:50:48.582Z,61.50
2022-11-12T08:53:15.502Z,35.05
2022-11-12T08:55:42.396Z,49.03
2022-11-12T08:58:10.653Z,42.92
2022-11-12T09:00:43.503Z,41.17
2022-11-12T09:03:18.762Z,42.17
2022-11-12T09:05:45.781Z,44.53
2022-11-12T09:08:17.853Z,36.78
2022-11-12T09:10:45.085Z,39.80
2022-11-12T09:13:12.081Z,42.22
2022-11-12T09:15:39.051Z,36.28
2022-11-12T09:18:09.048Z,37.00
2022-11-12T09:20:35.733Z,36.05
2022-11-12T09:23:05.794Z,35.22
2022-11-12T09:25:32.518Z,39.28
2022-11-12T09:28:06.442Z,34.40
2022-11-12T09:30:33.208Z,39.25
2022-11-12T09:32:59.913Z,41.83
2022-11-12T09:35:26.747Z,39.58
2022-11-12T09:37:53.556Z,41.25
2022-11-12T09:40:20.665Z,40.50
2022-11-12T09:42:53.028Z,42.08
2022-11-12T09:45:30.228Z,38.53
2022-11-12T09:48:02.624Z,41.45
2022-11-12T09:50:34.604Z,35.78
2022-11-12T09:53:15.786Z,32.45
2022-11-12T09:55:44.509Z,34.97
2022-11-12T09:58:16.293Z,37.80
2022-11-12T10:00:53.003Z,35.80
2022-11-12T10:03:44.463Z,38.63
2022-11-12T10:06:19.088Z,37.47
2022-11-12T10:09:19.605Z,35.63
2022-11-12T10:12:34.187Z,39.70
2022-11-12T10:15:39.437Z,43.22
2022-11-12T10:18:30.472Z,39.78
2022-11-12T10:21:48.511Z,42.38
2022-11-12T10:24:15.325Z,48.85
2022-11-12T10:26:42.193Z,47.28
2022-11-12T10:29:18.351Z,47.42
2022-11-12T10:31:45.456Z,47.38
2022-11-12T10:34:22.999Z,37.35
2022-11-12T10:37:01.213Z,40.20
2022-11-12T10:39:39.106Z,36.20
2022-11-12T10:42:09.129Z,38.08
2022-11-12T10:44:36.645Z,36.40
2022-11-12T10:47:26.296Z,32.38
2022-11-12T10:50:16.931Z,39.28
2022-11-12T10:53:03.674Z,35.65
2022-11-12T10:55:37.007Z,34.17
2022-11-12T10:58:30.409Z,33.43
2022-11-12T11:01:14.852Z,35.70
2022-11-12T11:03:54.695Z,35.22
2022-11-12T11:06:23.986Z,31.67
2022-11-12T11:08:53.028Z,36.05
2022-11-12T11:11:24.722Z,35.08
2022-11-12T11:13:55.758Z,35.83
2022-11-12T11:16:27.881Z,37.75
2022-11-12T11:19:00.618Z,37.15
2022-11-12T11:22:04.525Z,33.47
2022-11-12T11:24:41.181Z,38.63
2022-11-12T11:27:49.557Z,43.92
2022-11-12T11:30:21.342Z,32.95
2022-11-12T11:33:20.486Z,29.40
2022-11-12T11:36:09.765Z,30.38
2022-11-12T11:38:42.658Z,28.83
2022-11-12T11:41:31.091Z,30.75
2022-11-12T11:44:07.762Z,27.23
2022-11-12T11:46:51.662Z,28.52
2022-11-12T11:49:47.493Z,29.35
2022-11-12T11:52:48.405Z,25.63
2022-11-12T11:55:36.849Z,26.35
2022-11-12T11:58:14.076Z,23.92
2022-11-12T12:00:46.852Z,27.02
2022-11-12T12:03:42.748Z,25.73
2022-11-12T12:06:28.581Z,26.42
2022-11-12T12:09:15.795Z,28.70
2022-11-12T12:12:21.902Z,26.77
2022-11-12T12:15:03.775Z,25.90
2022-11-12T12:17:59.046Z,39.30
2022-11-12T12:20:52.705Z,34.60
2022-11-12T12:23:38.464Z,31.15
2022-11-12T12:26:11.981Z,31.58
2022-11-12T12:28:56.054Z,39.30
2022-11-12T12:31:33.156Z,32.95
2022-11-12T12:34:03.516Z,29.52
2022-11-12T12:36:39.370Z,22.92
2022-11-12T12:39:18.619Z,23.75
2022-11-12T12:42:17.702Z,24.23
2022-11-12T12:45:05.182Z,23.98
2022-11-12T12:47:37.311Z,30.25
2022-11-12T12:50:08.337Z,25.85
2022-11-12T12:53:04.077Z,29.60
2022-11-12T12:55:39.753Z,32.95
2022-11-12T12:58:36.234Z,34.30
2022-11-12T13:01:13.045Z,32.05
2022-11-12T13:04:12.347Z,28.23
2022-11-12T13:06:41.373Z,25.55
2022-11-12T13:09:24.363Z,25.38
2022-11-12T13:12:24.829Z,24.90
2022-11-12T13:14:54.681Z,22.35
2022-11-12T13:17:47.460Z,29.25
2022-11-12T13:20:33.224Z,27.38
2022-11-12T13:22:59.923Z,24.02
2022-11-12T13:25:31.473Z,25.25
2022-11-12T13:28:06.497Z,23.42
2022-11-12T13:30:57.178Z,23.60
2022-11-12T13:33:31.961Z,20.70
2022-11-12T13:36:25.968Z,21.20
2022-11-12T13:38:56.485Z,20.33
2022-11-12T13:41:45.269Z,18.98
2022-11-12T13:44:16.139Z,16.63
2022-11-12T13:46:43.057Z,18.50
2022-11-12T13:49:15.273Z,17.40
2022-11-12T13:51:47.058Z,15.25
2022-11-12T13:54:34.646Z,16.27
2022-11-12T13:57:30.744Z,17.38
2022-11-12T14:00:23.916Z,19.25
2022-11-12T14:03:06.965Z,18.27
2022-11-12T14:05:35.129Z,17.00
2022-11-12T14:08:21.724Z,22.08
2022-11-12T14:11:21.267Z,24.58
2022-11-12T14:14:12.517Z,21.00
2022-11-12T14:17:02.603Z,18.25
2022-11-12T14:19:55.362Z,18.48
2022-11-12T14:22:22.853Z,22.92
2022-11-12T14:24:54.822Z,23.40
2022-11-12T14:27:39.652Z,23.77
2022-11-12T14:30:17.660Z,35.95
2022-11-12T14:32:46.574Z,33.97
2022-11-12T14:35:32.203Z,35.63
2022-11-12T14:38:27.346Z,28.55
2022-11-12T14:40:56.088Z,29.13
2022-11-12T14:43:54.933Z,26.38
2022-11-12T14:46:40.105Z,23.38
2022-11-12T14:49:23.277Z,27.20
2022-11-12T14:51:55.066Z,21.45
2022-11-12T14:54:50.672Z,30.40
2022-11-12T14:57:21.583Z,20.15
2022-11-12T14:59:48.665Z,22.90
2022-11-12T15:02:32.529Z,24.42
2022-11-12T15:05:19.159Z,30.70
2022-11-12T15:08:00.927Z,27.33
2022-11-12T15:10:34.962Z,22.20
2022-11-12T15:13:13.966Z,24.48
2022-11-12T15:15:51.541Z,24.63
2022-11-12T15:18:20.968Z,22.80
2022-11-12T15:21:18.649Z,24.27
2022-11-12T15:24:02.119Z,25.77
2022-11-12T15:26:48.066Z,23.02
2022-11-12T15:29:32.805Z,40.00
2022-11-12T15:32:14.051Z,25.45
2022-11-12T15:34:46.419Z,25.02
2022-11-12T15:37:25.628Z,48.42
2022-11-12T15:39:55.765Z,45.35
2022-11-12T15:42:34.383Z,27.83
2022-11-12T15:45:02.911Z,27.73
2022-11-12T15:47:29.678Z,24.25
2022-11-12T15:49:58.942Z,23.60
2022-11-12T15:52:26.492Z,25.63
2022-11-12T15:54:53.635Z,28.92
2022-11-12T15:57:27.959Z,25.98
2022-11-12T16:02:34.761Z,22.00
2022-11-12T16:05:01.483Z,23.75
2022-11-12T16:07:28.244Z,23.35
2022-11-12T16:09:55.146Z,25.42
2022-11-12T16:12:22.068Z,25.60
2022-11-12T16:14:48.881Z,25.50
2022-11-12T16:17:16.752Z,22.77
2022-11-12T16:19:43.445Z,25.17
2022-11-12T16:22:12.975Z,25.88
2022-11-12T16:24:40.748Z,27.17
2022-11-12T16:27:10.867Z,27.13
2022-11-12T16:29:37.800Z,22.25
2022-11-12T16:32:04.899Z,20.45
2022-11-12T16:34:31.638Z,21.38
2022-11-12T16:36:58.849Z,22.42
2022-11-12T16:39:25.660Z,21.45
2022-11-12T16:41:52.712Z,20.35
2022-11-12T16:44:19.579Z,19.58
2022-11-12T16:46:46.333Z,21.90
2022-11-12T16:49:14.292Z,20.33
2022-11-12T16:51:42.097Z,21.63
2022-11-12T16:54:09.227Z,21.52
2022-11-12T16:56:36.770Z,20.35
2022-11-12T16:59:04.526Z,26.05
2022-11-12T17:01:32.915Z,20.67
2022-11-12T17:03:59.713Z,23.35
2022-11-12T17:06:36.931Z,19.65
2022-11-12T17:09:08.814Z,17.95
2022-11-12T17:11:36.160Z,20.90
2022-11-12T17:14:04.167Z,22.67
2022-11-12T17:16:31.560Z,17.08
2022-11-12T17:18:59.441Z,16.25
2022-11-12T17:21:26.131Z,17.40
2022-11-12T17:23:55.025Z,17.35
2022-11-12T17:26:22.313Z,16.40
2022-11-12T17:28:51.622Z,20.33
2022-11-12T17:31:23.788Z,19.33
2022-11-12T17:33:52.778Z,16.17
2022-11-12T17:36:25.671Z,16.05
2022-11-12T17:39:00.472Z,15.25
2022-11-12T17:41:31.207Z,17.40
2022-11-12T17:43:59.925Z,17.80
2022-11-12T17:46:27.336Z,16.15
2022-11-12T17:48:55.036Z,21.98
2022-11-12T17:51:25.513Z,15.35
2022-11-12T17:53:52.767Z,16.58
2022-11-12T17:56:23.187Z,14.35
2022-11-12T17:58:51.024Z,16.27
2022-11-12T18:01:21.336Z,17.83
2022-11-12T18:03:50.476Z,16.45
2022-11-12T18:06:23.522Z,17.10
2022-11-12T18:08:56.008Z,16.63
2022-11-12T18:11:24.013Z,15.95
2022-11-12T18:13:51.021Z,18.33
2022-11-12T18:16:26.065Z,19.55
2022-11-12T18:18:57.430Z,17.40
2022-11-12T18:21:25.427Z,23.90
2022-11-12T18:23:53.021Z,16.48
2022-11-12T18:26:21.678Z,21.42
2022-11-12T18:28:56.203Z,19.75
2022-11-12T18:31:25.202Z,25.35
2022-11-12T18:33:52.561Z,28.67
2022-11-12T18:36:24.392Z,23.23
2022-11-12T18:38:52.904Z,22.70
2022-11-12T18:41:25.859Z,22.42
2022-11-12T18:43:53.990Z,27.38
2022-11-12T18:46:21.059Z,28.58
2022-11-12T18:48:47.835Z,26.38
2022-11-12T18:51:16.474Z,29.33
2022-11-12T18:53:44.082Z,26.88
2022-11-12T18:56:13.426Z,33.75
2022-11-12T18:58:40.371Z,48.17
2022-11-12T19:01:12.674Z,30.98
2022-11-12T19:03:42.713Z,31.63
2022-11-12T19:06:13.211Z,42.05
2022-11-12T19:08:40.512Z,45.47
2022-11-12T19:11:09.911Z,46.60
2022-11-12T19:13:37.536Z,51.17
2022-11-12T19:16:24.020Z,46.10
2022-11-12T19:18:51.613Z,43.17
2022-11-12T19:21:22.523Z,40.92
2022-11-12T19:23:53.735Z,40.33
2022-11-12T19:26:22.244Z,44.95
2022-11-12T19:28:49.520Z,45.60
2022-11-12T19:31:19.880Z,41.05
2022-11-12T19:33:47.633Z,41.70
2022-11-12T19:36:16.171Z,41.28
2022-11-12T19:38:42.883Z,45.97
2022-11-12T19:41:17.787Z,42.22
2022-11-12T19:43:46.058Z,48.65
2022-11-12T19:46:12.797Z,52.45
2022-11-12T19:48:39.702Z,51.53
2022-11-12T19:51:08.813Z,57.20
2022-11-12T19:53:44.913Z,47.42
2022-11-12T19:56:13.847Z,57.17
2022-11-12T19:58:44.974Z,57.70
2022-11-12T20:01:14.579Z,51.08
2022-11-12T20:03:42.301Z,52.55
2022-11-12T20:06:18.303Z,49.40
2022-11-12T20:08:45.575Z,47.63
2022-11-12T20:11:13.307Z,50.42
2022-11-12T20:13:40.191Z,49.53
2022-11-12T20:16:13.357Z,52.90
2022-11-12T20:18:40.363Z,50.20
2022-11-12T20:21:07.978Z,63.50
2022-11-12T20:23:35.451Z,51.30
2022-11-12T20:26:04.528Z,66.55
2022-11-12T20:28:33.632Z,57.15
2022-11-12T20:31:05.581Z,56.28
2022-11-12T20:33:36.730Z,49.55
2022-11-12T20:36:15.657Z,59.30
2022-11-12T20:38:43.811Z,56.45
2022-11-12T20:41:14.614Z,51.28
2022-11-12T20:43:41.486Z,55.50
2022-11-12T20:46:08.213Z,58.08
2022-11-12T20:48:38.915Z,79.93
2022-11-12T20:51:25.282Z,55.17
2022-11-12T20:54:00.025Z,74.03
2022-11-12T20:56:29.519Z,75.25
2022-11-12T20:58:56.676Z,89.68
2022-11-12T21:01:24.593Z,95.78
2022-11-12T21:03:51.752Z,78.75
2022-11-12T21:06:21.573Z,119.78
2022-11-12T21:08:48.317Z,162.68
2022-11-12T21:11:16.970Z,133.75
2022-11-12T21:13:44.286Z,77.35
2022-11-12T21:16:12.087Z,68.47
2022-11-12T21:18:39.693Z,97.05
2022-11-12T21:21:18.489Z,110.57
2022-11-12T21:23:45.642Z,90.05
2022-11-12T21:26:17.773Z,84.13
2022-11-12T21:28:46.116Z,78.25
2022-11-12T21:31:35.001Z,66.25
2022-11-12T21:34:04.642Z,70.55
2022-11-12T21:36:34.502Z,63.30
2022-11-12T21:39:01.914Z,56.45
2022-11-12T21:41:30.367Z,75.88
2022-11-12T21:43:57.269Z,61.45
2022-11-12T21:46:30.242Z,71.22
2022-11-12T21:48:57.464Z,56.45
2022-11-12T21:51:27.155Z,52.30
2022-11-12T21:53:58.699Z,35.42
2022-11-12T21:56:26.250Z,46.03
2022-11-12T21:58:54.335Z,47.88
2022-11-12T22:01:23.234Z,73.43
2022-11-12T22:03:51.582Z,51.10
2022-11-12T22:06:20.030Z,41.15
2022-11-12T22:08:46.850Z,45.05
2022-11-12T22:11:15.633Z,41.55
2022-11-12T22:13:42.696Z,35.38
2022-11-12T22:16:20.792Z,28.25
2022-11-12T22:18:50.342Z,44.28
2022-11-12T22:21:23.156Z,41.63
2022-11-12T22:23:49.966Z,40.85
2022-11-12T22:26:21.056Z,48.72
2022-11-12T22:28:48.406Z,43.35
2022-11-12T22:31:17.828Z,40.05
2022-11-12T22:33:44.654Z,37.03
2022-11-12T22:36:13.736Z,46.22
2022-11-12T22:38:42.853Z,59.00
2022-11-12T22:41:14.917Z,51.72
2022-11-12T22:43:41.876Z,52.97
2022-11-12T22:46:13.646Z,65.18
2022-11-12T22:48:40.970Z,45.85
2022-11-12T22:51:14.651Z,41.38
2022-11-12T22:53:41.422Z,42.70
2022-11-12T22:56:09.944Z,58.35
2022-11-12T22:58:37.989Z,39.97
2022-11-12T23:01:06.220Z,34.25
2022-11-12T23:03:34.198Z,45.85
2022-11-12T23:06:04.502Z,46.50
2022-11-12T23:08:31.701Z,36.78
2022-11-12T23:11:03.389Z,36.47
2022-11-12T23:13:30.033Z,29.20
2022-11-12T23:15:56.759Z,34.53
2022-11-12T23:18:23.539Z,29.95
2022-11-12T23:20:50.447Z,24.88
2022-11-12T23:23:17.330Z,35.72
2022-11-12T23:25:44.380Z,39.35
2022-11-12T23:28:11.117Z,52.70
2022-11-12T23:30:38.039Z,65.22
2022-11-12T23:33:04.714Z,36.47
2022-11-12T23:35:31.571Z,33.88
2022-11-12T23:37:58.186Z,33.83
2022-11-12T23:40:30.644Z,18.92
2022-11-12T23:42:57.715Z,27.52
2022-11-12T23:45:24.470Z,54.25
2022-11-12T23:47:51.259Z,25.50
2022-11-12T23:50:17.944Z,35.45
2022-11-12T23:52:44.701Z,20.23
2022-11-12T23:55:11.625Z,27.67
2022-11-12T23:57:38.357Z,24.40
